Flight Track Log - Related Links

Times and Time Zones

All times are in EDT time to prevent confusion due to time zone crossing. See the SWA3408 flight status page for this flight to view local times or setup timezone preferences in your user account.

Time Position Orientation Groundspeed Altitude Reporting Facility
EDT Latitude Longitude Course Direction KTS MPH feet Rate Location/Type
Sun 07:39:02 41.8167 -87.7333 90° East 199 229 3,100  Level Chicago TRACON
Sun 07:40:48 41.8283 -87.6253 82° East 199 229 4,700 2,335 Climbing Chicago Center
Sun 07:41:49 41.8508 -87.5147 75° East 282 325 9,600 4,820 Climbing Chicago Center
Sun 07:42:50 41.8317 -87.4189 105° East 271 312 14,500 4,131 Climbing Chicago Center
Sun 07:43:51 41.8106 -87.3078 104° East 300 345 18,000 3,492 Climbing Chicago Center
Sun 07:44:00 41.7667 -86.3546 90° East  Level FlightAware Approximate
Sun 07:44:52 41.7858 -87.1847 105° East 334 384 21,600  Level Chicago Center
Sun 07:45:52 41.7611 -87.0492 104° East 367 422 25,000 3,223 Climbing Chicago Center
Sun 07:46:53 41.7631 -86.9025 89° East 392 451 28,100 2,902 Climbing Chicago Center
Sun 07:47:54 41.7656 -86.7522 89° East 403 464 30,900 3,049 Climbing Chicago Center
Sun 07:48:55 41.7664 -86.5853 90° East 413 475 34,300 2,311 Climbing Chicago Center
Sun 07:49:56 41.7675 -86.4361 89° East 403 464 35,600 1,918 Climbing Chicago Center
Sun 07:50:57 41.7664 -86.2894 91° East 397 457 38,200 2,066 Climbing Chicago Center
Sun 07:51:58 41.7581 -86.1453 94° East 390 449 39,800 1,279 Climbing Chicago Center
Sun 07:52:59 41.7481 -85.9953 95° East 402 463 40,800 590 Climbing Chicago Center
Sun 07:54:00 41.7383 -85.8386 95° East 420 483 41,000 98 Climbing Chicago Center
Sun 07:55:01 41.7286 -85.6806 95° East 425 489 41,000  Level Chicago Center
Sun 07:56:02 41.7186 -85.5353 95° East 423 487 41,000  Level Chicago Center
Sun 07:57:03 41.6692 -85.3636 111° Southeast 413 475 41,000  Level Chicago Center
Sun 07:58:04 41.6253 -85.2253 113° Southeast 416 479 41,000  Level Chicago Center
Sun 07:59:08 41.5783 -85.0833 114° Southeast 419 482 41,000  Level Chicago Center
Sun 08:00:09 41.5311 -84.9444 114° Southeast 412 474 41,000  Level Chicago Center
Sun 08:01:11 41.4822 -84.8047 115° Southeast 415 478 41,000  Level Chicago Center
Sun 08:02:11 41.4339 -84.6631 114° Southeast 419 482 41,000  Level Chicago Center
Sun 08:03:12 41.3781 -84.4992 114° Southeast 412 474 41,000  Level Cleveland Center
Sun 08:04:12 41.3381 -84.3889 116° Southeast 412 474 41,000  Level Cleveland Center
Sun 08:05:12 41.2867 -84.2367 114° Southeast 412 474 41,000  Level Cleveland Center
Sun 08:06:12 41.2367 -84.0983 116° Southeast 412 474 41,000  Level Cleveland Center
Sun 08:07:12 41.1886 -83.9606 115° Southeast 412 474 41,000  Level Cleveland Center
Sun 08:08:12 41.1364 -83.8200 116° Southeast 412 474 41,000  Level Cleveland Center
Sun 08:09:12 41.0844 -83.6631 114° Southeast 417 480 41,000  Level Cleveland Center
Sun 08:10:12 41.0339 -83.5258 116° Southeast 412 474 41,000  Level Cleveland Center
Sun 08:11:12 40.9853 -83.3861 115° Southeast 412 474 41,000  Level Cleveland Center
Sun 08:12:12 40.9367 -83.2467 115° Southeast 412 474 41,000  Level Cleveland Center
Sun 08:13:12 40.8872 -83.1264 119° Southeast 417 480 41,000  Level Cleveland Center
Sun 08:15:38 40.7617 -82.7758 115° Southeast 420 483 41,000  Level Indianapolis Center
Sun 08:16:39 40.7106 -82.6386 116° Southeast 417 480 41,000  Level Indianapolis Center
Sun 08:17:40 40.6614 -82.5008 115° Southeast 415 478 41,000  Level Indianapolis Center
Sun 08:18:41 40.6097 -82.3664 117° Southeast 412 474 41,000  Level Indianapolis Center
Sun 08:19:43 40.5594 -82.2314 116° Southeast 411 473 41,000  Level Indianapolis Center
Sun 08:20:48 40.4972 -82.0767 118° Southeast 408 470 41,000  Level Cleveland Center
Sun 08:21:48 40.4528 -81.9556 116° Southeast 414 476 41,000  Level Cleveland Center
Sun 08:22:48 40.4022 -81.8181 116° Southeast 414 476 41,000  Level Cleveland Center
Sun 08:23:48 40.3517 -81.6864 117° Southeast 408 470 41,000  Level Cleveland Center
Sun 08:24:48 40.3028 -81.5494 115° Southeast 408 470 41,000  Level Cleveland Center
Sun 08:25:48 40.2517 -81.4156 117° Southeast 408 470 41,000  Level Cleveland Center
Sun 08:26:48 40.2006 -81.2817 117° Southeast 408 470 41,000  Level Cleveland Center
Sun 08:27:48 40.1492 -81.1508 117° Southeast 408 470 41,000  Level Cleveland Center
Sun 08:28:48 40.0997 -81.0172 116° Southeast 403 464 41,000  Level Cleveland Center
Sun 08:29:48 40.0458 -80.8869 118° Southeast 403 464 41,000  Level Cleveland Center
Sun 08:30:48 39.9919 -80.7511 117° Southeast 408 470 41,000  Level Cleveland Center
Sun 08:31:48 39.9400 -80.6183 117° Southeast 413 475 41,000  Level Cleveland Center
Sun 08:32:48 39.8878 -80.4858 117° Southeast 413 475 41,000  Level Cleveland Center
Sun 08:33:48 39.8314 -80.3506 118° Southeast 413 475 41,000  Level Cleveland Center
Sun 08:34:48 39.7811 -80.2158 116° Southeast 413 475 41,000 -800 Level Cleveland Center
Sun 08:35:48 39.7264 -80.0864 119° Southeast 413 475 39,400 -2,534 Descending Cleveland Center
Sun 08:38:14 39.5956 -79.7686 118° Southeast 417 480 32,300 -2,942 Descending Washington Center
Sun 08:39:14 39.5439 -79.6336 116° Southeast 417 480 29,300 -2,628 Descending Washington Center
Sun 08:40:15 39.4939 -79.5019 116° Southeast 417 480 27,000 -1,140 Descending Washington Center
Sun 08:41:15 39.4694 -79.3553 102° East 411 473 27,000 -458 Level Washington Center
Sun 08:42:13 39.4408 -79.2061 104° East 416 479 26,100 -508 Descending Washington Center
Sun 08:43:13 39.4178 -79.0625 102° East 416 479 26,000 -1,636 Descending Washington Center
Sun 08:44:14 39.3883 -78.9242 105° East 410 472 22,800 -3,197 Descending Washington Center
Sun 08:45:15 39.3631 -78.7861 103° East 405 466 19,500 -2,033 Descending Washington Center
Sun 08:46:15 39.3411 -78.6589 103° East 381 438 18,700 -1,664 Descending Washington Center
Sun 08:47:14 39.3192 -78.5372 103° East 360 414 16,200 -2,400 Descending Washington Center
Sun 08:48:15 39.2972 -78.4183 103° East 347 399 13,900 -2,370 Descending Washington Center
Sun 08:49:13 39.2597 -78.3178 116° Southeast 329 379 11,500 -1,714 Descending Washington Center
Sun 08:50:14 39.2139 -78.2303 124° Southeast 309 356 10,500 -984 Descending Washington Center
Sun 08:51:15 39.1739 -78.1539 124° Southeast 284 327 9,500 -1,041 Descending Washington Center
Sun 08:52:15 39.1336 -78.0775 124° Southeast 268 308 8,400 -1,068 Descending Washington Center
Sun 08:53:13 39.0894 -77.9958 125° Southeast 263 303 7,400 -1,008 Descending Washington Center
Sun 08:54:14 39.0514 -77.9222 124° Southeast 263 303 6,400 -694 Descending Washington Center
Sun 08:55:14 39.0131 -77.8464 123° Southeast 255 293 6,000 -200 Descending Washington Center
Sun 08:56:14 38.9789 -77.7839 125° Southeast 243 280 6,000  Level Washington Center
Sun 08:57:57 38.9500 -77.6167 102° East 255 293 6,000 -228 Level Potomac TRACON
Sun 08:58:52 38.8833 -77.5833 159° South 254 292 5,400 -939 Descending Potomac TRACON
Sun 08:59:52 38.8167 -77.5667 169° South 257 296 4,200 -1,143 Descending Potomac TRACON
Sun 09:00:58 38.7667 -77.5333 153° Southeast 234 269 3,000 -700 Descending Potomac TRACON
Sun 09:01:52 38.7833 -77.4833 67° East 190 219 2,800 -333 Descending Potomac TRACON
Sun 09:02:46 38.8333 -77.4667 15° North 174 200 2,400 -579 Descending Potomac TRACON
Sun 09:03:46 38.8833 -77.4667 360° North 151 174 1,700 -700 Descending Potomac TRACON
Sun 09:04:46 38.9167 -77.4667 360° North 119 137 1,000 -700 Descending Potomac TRACON
Sun 09:06:00 38.9333 -77.4500 165° South  Level FlightAware Approximate
Sun 09:13:00 38.9474 -77.4599 165° South  Level Estimated
Sun 09:14:00 38.9474 -77.4599 165° South  Level Estimated

Login

Don't have an account? Register now (free) for customized features, flight alerts, and more!